createdAt,value
2017-07-27T00:00:41.019Z,15.30
2017-07-27T00:03:07.449Z,15.30
2017-07-27T00:05:33.853Z,15.20
2017-07-27T00:08:00.256Z,15.20
2017-07-27T00:10:27.419Z,15.10
2017-07-27T00:12:53.822Z,15.10
2017-07-27T00:15:20.238Z,15.10
2017-07-27T00:17:46.635Z,15.20
2017-07-27T00:20:13.023Z,15.20
2017-07-27T00:22:39.851Z,15.20
2017-07-27T00:25:06.269Z,15.30
2017-07-27T00:27:32.675Z,15.30
2017-07-27T00:29:59.073Z,15.30
2017-07-27T00:32:26.219Z,15.30
2017-07-27T00:34:52.605Z,15.30
2017-07-27T00:37:18.995Z,15.30
2017-07-27T00:39:45.417Z,15.30
2017-07-27T00:42:12.960Z,15.30
2017-07-27T00:44:39.373Z,15.30
2017-07-27T00:47:05.768Z,15.30
2017-07-27T00:49:32.211Z,15.40
2017-07-27T00:51:58.619Z,15.40
2017-07-27T00:54:25.036Z,15.40
2017-07-27T00:56:52.218Z,15.30
2017-07-27T00:59:18.655Z,15.30
2017-07-27T01:01:45.086Z,15.40
2017-07-27T01:04:11.509Z,15.40
2017-07-27T01:06:37.934Z,15.30
2017-07-27T01:09:04.363Z,15.40
2017-07-27T01:11:31.538Z,15.40
2017-07-27T01:13:57.936Z,15.40
2017-07-27T01:16:25.073Z,15.40
2017-07-27T01:18:51.484Z,15.40
2017-07-27T01:21:17.898Z,15.40
2017-07-27T01:23:44.293Z,15.40
2017-07-27T01:26:10.721Z,15.40
2017-07-27T01:28:37.868Z,15.50
2017-07-27T01:31:05.012Z,15.40
2017-07-27T01:33:32.177Z,15.40
2017-07-27T01:35:59.345Z,15.40
2017-07-27T01:38:25.790Z,15.40
2017-07-27T01:40:52.206Z,15.50
2017-07-27T01:43:18.629Z,15.50
2017-07-27T01:45:45.044Z,15.60
2017-07-27T01:48:11.442Z,15.50
2017-07-27T01:50:37.928Z,15.60
2017-07-27T01:53:05.130Z,15.50
2017-07-27T01:55:31.591Z,15.50
2017-07-27T01:57:58.770Z,15.50
2017-07-27T02:00:25.206Z,15.50
2017-07-27T02:02:51.641Z,15.40
2017-07-27T02:05:18.107Z,15.40
2017-07-27T02:07:44.561Z,15.40
2017-07-27T02:10:10.989Z,15.40
2017-07-27T02:12:37.378Z,15.50
2017-07-27T02:15:03.832Z,15.50
2017-07-27T02:17:30.241Z,15.50
2017-07-27T02:19:56.653Z,15.50
2017-07-27T02:22:23.801Z,15.50
2017-07-27T02:24:50.957Z,15.50
2017-07-27T02:27:17.409Z,15.50
2017-07-27T02:29:44.089Z,15.50
2017-07-27T02:32:10.845Z,15.60
2017-07-27T02:34:37.264Z,15.60
2017-07-27T02:37:03.660Z,15.60
2017-07-27T02:39:30.137Z,15.60
2017-07-27T02:41:56.615Z,15.60
2017-07-27T02:44:23.006Z,15.60
2017-07-27T02:46:49.370Z,15.60
2017-07-27T02:49:16.505Z,15.60
2017-07-27T02:51:43.678Z,15.60
2017-07-27T02:54:10.124Z,15.60
2017-07-27T02:56:36.547Z,15.60
2017-07-27T02:59:02.981Z,15.60
2017-07-27T03:01:29.399Z,15.70
2017-07-27T03:03:56.541Z,15.60
2017-07-27T03:06:23.717Z,15.60
2017-07-27T03:08:50.145Z,15.60
2017-07-27T03:11:16.548Z,15.60
2017-07-27T03:13:43.685Z,15.70
2017-07-27T03:16:10.107Z,15.70
2017-07-27T03:18:36.529Z,15.60
2017-07-27T03:21:02.935Z,15.60
2017-07-27T03:23:29.357Z,15.50
2017-07-27T03:25:55.808Z,15.60
2017-07-27T03:28:22.234Z,15.60
2017-07-27T03:30:48.739Z,15.50
2017-07-27T03:33:15.877Z,15.50
2017-07-27T03:35:43.015Z,15.50
2017-07-27T03:38:09.418Z,15.50
2017-07-27T03:40:35.820Z,15.50
2017-07-27T03:43:02.242Z,15.60
2017-07-27T03:45:29.383Z,15.70
2017-07-27T03:47:56.521Z,15.60
2017-07-27T03:50:23.656Z,15.60
2017-07-27T03:52:50.046Z,15.60
2017-07-27T03:55:16.456Z,15.60
2017-07-27T03:57:42.873Z,15.60
2017-07-27T04:00:10.026Z,15.70
2017-07-27T04:02:37.162Z,15.60
2017-07-27T04:05:03.572Z,15.60
2017-07-27T04:07:29.957Z,15.60
2017-07-27T04:09:56.356Z,15.70
2017-07-27T04:12:22.732Z,15.80
2017-07-27T04:14:49.139Z,15.70
2017-07-27T04:17:15.538Z,15.80
2017-07-27T04:19:41.982Z,15.70
2017-07-27T04:22:08.381Z,15.70
2017-07-27T04:24:34.812Z,15.60
2017-07-27T04:27:01.213Z,15.60
2017-07-27T04:29:27.618Z,15.60
2017-07-27T04:31:54.769Z,15.70
2017-07-27T04:34:21.180Z,15.70
2017-07-27T04:36:47.593Z,15.70
2017-07-27T04:39:13.998Z,15.70
2017-07-27T04:41:40.415Z,15.70
2017-07-27T04:44:07.579Z,15.70
2017-07-27T04:46:33.978Z,15.70
2017-07-27T04:49:00.391Z,15.80
2017-07-27T04:51:26.790Z,15.80
2017-07-27T04:53:53.189Z,15.80
2017-07-27T04:56:20.363Z,15.80
2017-07-27T04:58:46.810Z,15.80
2017-07-27T05:01:13.212Z,15.80
2017-07-27T05:03:39.627Z,15.80
2017-07-27T05:06:06.049Z,15.80
2017-07-27T05:08:32.492Z,15.80
2017-07-27T05:10:58.896Z,15.80
2017-07-27T05:13:25.309Z,15.80
2017-07-27T05:15:51.733Z,15.80
2017-07-27T05:18:18.177Z,15.80
2017-07-27T05:20:44.580Z,15.80
2017-07-27T05:23:10.970Z,15.90
2017-07-27T05:25:37.415Z,15.90
2017-07-27T05:28:03.842Z,16.00
2017-07-27T05:30:30.276Z,15.90
2017-07-27T05:32:56.700Z,15.90
2017-07-27T05:35:23.118Z,15.90
2017-07-27T05:37:49.505Z,15.90
2017-07-27T05:40:16.716Z,15.90
2017-07-27T05:42:43.120Z,15.90
2017-07-27T05:45:09.536Z,15.90
2017-07-27T05:47:36.007Z,16.00
2017-07-27T05:50:02.423Z,16.00
2017-07-27T05:52:29.601Z,16.00
2017-07-27T05:54:56.056Z,15.90
2017-07-27T05:57:22.478Z,15.90
2017-07-27T05:59:48.894Z,16.00
2017-07-27T06:02:15.286Z,16.10
2017-07-27T06:04:41.742Z,16.10
2017-07-27T06:07:08.204Z,16.10
2017-07-27T06:09:34.617Z,16.10
2017-07-27T06:12:01.025Z,16.10
2017-07-27T06:14:27.447Z,16.10
2017-07-27T06:16:53.834Z,16.20
2017-07-27T06:19:20.235Z,16.30
2017-07-27T06:21:46.649Z,16.30
2017-07-27T06:24:13.077Z,16.40
2017-07-27T06:26:39.501Z,16.40
2017-07-27T06:29:05.948Z,16.40
2017-07-27T06:31:32.364Z,16.40
2017-07-27T06:33:58.777Z,16.40
2017-07-27T06:36:25.190Z,16.40
2017-07-27T06:38:51.636Z,16.30
2017-07-27T06:41:18.076Z,16.30
2017-07-27T06:43:45.247Z,16.30
2017-07-27T06:46:11.653Z,16.30
2017-07-27T06:48:38.055Z,16.30
2017-07-27T06:51:04.512Z,16.30
2017-07-27T06:53:30.904Z,16.40
2017-07-27T06:55:57.346Z,16.40
2017-07-27T06:58:23.818Z,16.50
2017-07-27T07:00:51.017Z,16.60
2017-07-27T07:03:17.419Z,16.50
2017-07-27T07:05:44.596Z,16.40
2017-07-27T07:08:11.002Z,16.40
2017-07-27T07:10:38.150Z,16.60
2017-07-27T07:13:05.300Z,16.60
2017-07-27T07:15:32.433Z,16.60
2017-07-27T07:17:58.834Z,16.60
2017-07-27T07:20:25.793Z,16.70
2017-07-27T07:22:52.237Z,16.80
2017-07-27T07:25:18.638Z,16.80
2017-07-27T07:27:45.048Z,16.80
2017-07-27T07:30:11.465Z,16.80
2017-07-27T07:32:37.885Z,16.70
2017-07-27T07:35:05.017Z,16.70
2017-07-27T07:37:31.439Z,16.70
2017-07-27T07:39:57.863Z,16.70
2017-07-27T07:42:24.304Z,16.60
2017-07-27T07:44:50.697Z,16.70
2017-07-27T07:47:17.098Z,16.70
2017-07-27T07:49:44.249Z,16.70
2017-07-27T07:52:11.435Z,16.80
2017-07-27T07:54:37.826Z,16.70
2017-07-27T07:57:04.974Z,16.60
2017-07-27T07:59:32.145Z,16.70
2017-07-27T08:01:58.594Z,16.60
2017-07-27T08:04:25.000Z,16.70
2017-07-27T08:06:52.129Z,16.70
2017-07-27T08:09:30.732Z,16.70
2017-07-27T08:11:57.124Z,16.70
2017-07-27T08:14:23.537Z,16.70
2017-07-27T08:16:50.786Z,16.60
2017-07-27T08:19:17.938Z,16.60
2017-07-27T08:21:45.266Z,16.70
2017-07-27T08:24:11.699Z,16.60
2017-07-27T08:26:38.153Z,16.60
2017-07-27T08:29:05.327Z,16.70
2017-07-27T08:31:31.787Z,16.70
2017-07-27T08:33:58.225Z,16.70
2017-07-27T08:36:24.622Z,16.70
2017-07-27T08:38:51.332Z,16.70
2017-07-27T08:41:17.733Z,16.80
2017-07-27T08:43:45.188Z,17.00
2017-07-27T08:46:11.605Z,16.90
2017-07-27T08:48:38.036Z,17.10
2017-07-27T08:51:04.525Z,17.00
2017-07-27T08:53:31.037Z,17.10
2017-07-27T08:55:57.453Z,17.10
2017-07-27T08:58:23.861Z,17.10
2017-07-27T09:00:50.310Z,17.10
2017-07-27T09:03:16.722Z,17.20
2017-07-27T09:05:43.108Z,17.20
2017-07-27T09:08:09.533Z,17.20
2017-07-27T09:10:35.953Z,17.20
2017-07-27T09:13:02.354Z,17.30
2017-07-27T09:15:28.764Z,17.30
2017-07-27T09:17:55.923Z,17.20
2017-07-27T09:20:22.412Z,17.20
2017-07-27T09:22:48.848Z,17.20
2017-07-27T09:25:15.235Z,17.20
2017-07-27T09:27:41.634Z,17.20
2017-07-27T09:30:08.792Z,17.40
2017-07-27T09:32:35.945Z,17.40
2017-07-27T09:35:03.087Z,17.30
2017-07-27T09:37:30.590Z,17.40
2017-07-27T09:39:57.008Z,17.40
2017-07-27T09:42:23.469Z,17.40
2017-07-27T09:44:49.935Z,17.50
2017-07-27T09:47:16.348Z,17.50
2017-07-27T09:49:42.736Z,17.60
2017-07-27T09:52:09.157Z,17.60
2017-07-27T09:54:36.326Z,17.60
2017-07-27T09:57:08.735Z,17.60
2017-07-27T09:59:35.128Z,17.70
2017-07-27T10:02:01.526Z,17.80
2017-07-27T10:04:28.655Z,17.90
2017-07-27T10:06:55.046Z,17.80
2017-07-27T10:09:21.442Z,17.90
2017-07-27T10:11:48.600Z,18.10
2017-07-27T10:14:15.762Z,18.10
2017-07-27T10:16:42.203Z,18.10
2017-07-27T10:19:08.670Z,18.20
2017-07-27T10:21:35.186Z,18.30
2017-07-27T10:24:01.614Z,18.30
2017-07-27T10:26:28.052Z,18.30
2017-07-27T10:28:54.492Z,18.30
2017-07-27T10:31:20.919Z,18.40
2017-07-27T10:33:47.300Z,18.40
2017-07-27T10:36:13.701Z,18.50
2017-07-27T10:38:40.139Z,18.40
2017-07-27T10:41:06.588Z,18.50
2017-07-27T10:43:33.005Z,18.50
2017-07-27T10:45:59.474Z,18.50
2017-07-27T10:48:26.636Z,18.70
2017-07-27T10:50:53.073Z,18.70
2017-07-27T10:53:20.344Z,18.80
2017-07-27T10:55:46.753Z,18.80
2017-07-27T10:58:13.919Z,19.00
2017-07-27T11:00:40.369Z,18.90
2017-07-27T11:03:06.789Z,19.10
2017-07-27T11:05:33.214Z,19.30
2017-07-27T11:08:00.348Z,19.40
2017-07-27T11:10:27.585Z,19.50
2017-07-27T11:12:53.997Z,19.50
2017-07-27T11:15:20.470Z,19.60
2017-07-27T11:17:47.618Z,19.80
2017-07-27T11:20:14.759Z,19.90
2017-07-27T11:22:41.978Z,20.10
2017-07-27T11:25:08.380Z,20.10
2017-07-27T11:27:34.772Z,20.20
2017-07-27T11:30:01.159Z,20.40
2017-07-27T11:32:27.888Z,20.70
2017-07-27T11:34:54.283Z,20.80
2017-07-27T11:37:21.392Z,21.40
2017-07-27T11:39:47.809Z,21.40
2017-07-27T11:42:14.238Z,21.50
2017-07-27T11:44:40.647Z,21.70
2017-07-27T11:47:07.061Z,21.70
2017-07-27T11:49:33.494Z,21.80
2017-07-27T11:52:00.655Z,22.00
2017-07-27T11:54:27.119Z,22.00
2017-07-27T11:56:53.543Z,22.10
2017-07-27T11:59:19.981Z,22.20
2017-07-27T12:01:46.410Z,22.30
2017-07-27T12:04:12.818Z,22.40
2017-07-27T12:06:39.977Z,22.50
2017-07-27T12:09:07.126Z,22.50
2017-07-27T12:11:33.533Z,22.50
2017-07-27T12:13:59.952Z,22.50
2017-07-27T12:16:26.339Z,22.40
2017-07-27T12:18:52.750Z,22.40
2017-07-27T12:21:19.182Z,22.30
2017-07-27T12:23:46.321Z,22.10
2017-07-27T12:26:12.961Z,22.10
2017-07-27T12:28:39.358Z,22.20
2017-07-27T12:31:05.783Z,22.30
2017-07-27T12:33:32.199Z,22.40
2017-07-27T12:35:58.610Z,22.40
2017-07-27T12:38:25.747Z,22.60
2017-07-27T12:40:52.895Z,22.70
2017-07-27T12:43:20.052Z,22.90
2017-07-27T12:45:47.198Z,23.10
2017-07-27T12:48:14.352Z,23.20
2017-07-27T12:50:40.759Z,23.20
2017-07-27T12:53:07.172Z,23.30
2017-07-27T12:55:33.610Z,23.50
2017-07-27T12:58:00.017Z,23.60
2017-07-27T13:00:26.453Z,23.60
2017-07-27T13:02:52.863Z,23.60
2017-07-27T13:05:19.245Z,23.60
2017-07-27T13:07:45.897Z,23.60
2017-07-27T13:10:12.325Z,23.60
2017-07-27T13:12:38.750Z,23.50
2017-07-27T13:15:05.183Z,23.40
2017-07-27T13:17:31.588Z,23.20
2017-07-27T13:19:58.013Z,23.00
2017-07-27T13:22:24.430Z,22.90
2017-07-27T13:24:50.829Z,22.90
2017-07-27T13:27:17.313Z,22.70
2017-07-27T13:29:43.707Z,22.40
2017-07-27T13:32:10.115Z,22.40
2017-07-27T13:34:36.544Z,22.30
2017-07-27T13:37:02.982Z,22.30
2017-07-27T13:39:29.408Z,22.20
2017-07-27T13:41:55.821Z,22.00
2017-07-27T13:44:22.676Z,22.00
2017-07-27T13:46:49.110Z,21.90
2017-07-27T13:49:15.547Z,21.90
2017-07-27T13:51:41.954Z,22.00
2017-07-27T13:54:08.378Z,22.10
2017-07-27T13:56:34.786Z,22.10
2017-07-27T13:59:01.924Z,22.30
2017-07-27T14:01:28.346Z,22.20
2017-07-27T14:03:54.728Z,22.40
2017-07-27T14:06:21.280Z,22.60
2017-07-27T14:08:47.720Z,22.50
2017-07-27T14:11:14.150Z,22.50
2017-07-27T14:13:40.540Z,22.60
2017-07-27T14:16:06.956Z,22.60
2017-07-27T14:18:33.434Z,22.40
2017-07-27T14:20:59.858Z,22.20
2017-07-27T14:23:26.266Z,22.10
2017-07-27T14:25:53.428Z,21.90
2017-07-27T14:28:20.028Z,21.90
2017-07-27T14:30:47.200Z,22.00
2017-07-27T14:33:14.398Z,22.00
2017-07-27T14:35:40.814Z,22.00
2017-07-27T14:38:07.231Z,22.00
2017-07-27T14:40:34.384Z,22.00
2017-07-27T14:43:00.784Z,22.00
2017-07-27T14:45:27.165Z,22.10
2017-07-27T14:47:53.591Z,22.10
2017-07-27T14:50:20.030Z,22.00
2017-07-27T14:52:46.422Z,22.00
2017-07-27T14:55:13.613Z,22.10
2017-07-27T14:57:39.985Z,22.10
2017-07-27T15:00:06.418Z,22.00
2017-07-27T15:02:32.817Z,22.10
2017-07-27T15:04:59.247Z,22.20
2017-07-27T15:07:26.027Z,22.30
2017-07-27T15:09:52.423Z,22.50
2017-07-27T15:12:18.842Z,22.50
2017-07-27T15:14:45.299Z,22.50
2017-07-27T15:17:11.713Z,22.40
2017-07-27T15:19:38.409Z,22.50
2017-07-27T15:22:04.817Z,22.50
2017-07-27T15:24:31.228Z,22.40
2017-07-27T15:26:57.637Z,22.40
2017-07-27T15:29:24.769Z,22.50
2017-07-27T15:31:51.185Z,22.40
2017-07-27T15:34:17.604Z,22.40
2017-07-27T15:36:44.000Z,22.30
2017-07-27T15:39:10.692Z,22.40
2017-07-27T15:41:37.113Z,22.30
2017-07-27T15:44:03.885Z,22.10
2017-07-27T15:46:31.056Z,22.00
2017-07-27T15:48:57.481Z,22.00
2017-07-27T15:51:24.622Z,21.90
2017-07-27T15:53:51.795Z,21.80
2017-07-27T15:56:18.169Z,21.80
2017-07-27T15:58:44.625Z,21.70
2017-07-27T16:01:11.890Z,21.70
2017-07-27T16:03:39.020Z,21.70
2017-07-27T16:06:05.483Z,21.70
2017-07-27T16:08:31.946Z,21.80
2017-07-27T16:10:58.353Z,21.90
2017-07-27T16:13:24.758Z,22.00
2017-07-27T16:15:51.268Z,22.10
2017-07-27T16:18:17.770Z,22.10
2017-07-27T16:20:44.221Z,22.10
2017-07-27T16:23:10.638Z,22.10
2017-07-27T16:25:37.130Z,21.90
2017-07-27T16:28:03.584Z,21.80
2017-07-27T16:30:30.065Z,21.90
2017-07-27T16:32:56.473Z,21.70
2017-07-27T16:35:22.872Z,21.60
2017-07-27T16:37:50.092Z,21.60
2017-07-27T16:40:16.489Z,21.50
2017-07-27T16:42:42.878Z,21.50
2017-07-27T16:45:09.293Z,21.40
2017-07-27T16:47:35.710Z,21.40
2017-07-27T16:50:02.148Z,21.50
2017-07-27T16:52:28.551Z,21.30
2017-07-27T16:54:54.964Z,21.30
2017-07-27T16:57:22.104Z,21.20
2017-07-27T16:59:49.232Z,21.20
2017-07-27T17:02:15.625Z,21.20
2017-07-27T17:04:42.060Z,21.20
2017-07-27T17:07:08.484Z,21.10
2017-07-27T17:09:34.914Z,21.00
2017-07-27T17:12:01.380Z,21.00
2017-07-27T17:14:27.796Z,21.00
2017-07-27T17:16:54.212Z,21.00
2017-07-27T17:19:20.674Z,20.90
2017-07-27T17:21:47.107Z,20.90
2017-07-27T17:24:13.512Z,20.90
2017-07-27T17:26:39.914Z,20.90
2017-07-27T17:29:07.055Z,20.80
2017-07-27T17:31:33.904Z,20.80
2017-07-27T17:34:00.315Z,20.80
2017-07-27T17:36:26.726Z,20.70
2017-07-27T17:38:53.130Z,20.70
2017-07-27T17:41:19.714Z,20.70
2017-07-27T17:43:46.113Z,20.70
2017-07-27T17:46:12.524Z,20.60
2017-07-27T17:48:38.960Z,20.50
2017-07-27T17:51:05.407Z,20.60
2017-07-27T17:53:31.812Z,20.50
2017-07-27T17:55:58.958Z,20.50
2017-07-27T17:58:26.098Z,20.50
2017-07-27T18:00:53.229Z,20.50
2017-07-27T18:03:19.643Z,20.40
2017-07-27T18:05:46.045Z,20.50
2017-07-27T18:08:12.481Z,20.50
2017-07-27T18:10:38.879Z,20.50
2017-07-27T18:13:05.278Z,20.40
2017-07-27T18:15:31.678Z,20.40
2017-07-27T18:17:58.098Z,20.40
2017-07-27T18:20:25.262Z,20.40
2017-07-27T18:22:51.714Z,20.40
2017-07-27T18:25:18.130Z,20.30
2017-07-27T18:27:44.598Z,20.20
2017-07-27T18:30:11.068Z,20.10
2017-07-27T18:32:38.222Z,20.20
2017-07-27T18:35:05.385Z,20.10
2017-07-27T18:37:31.782Z,20.10
2017-07-27T18:39:58.186Z,20.10
2017-07-27T18:42:24.596Z,20.00
2017-07-27T18:44:50.994Z,20.10
2017-07-27T18:47:18.208Z,19.90
2017-07-27T18:49:44.620Z,19.90
2017-07-27T18:52:11.022Z,19.90
2017-07-27T18:54:37.460Z,19.90
2017-07-27T18:57:04.643Z,19.80
2017-07-27T18:59:31.110Z,19.80
2017-07-27T19:01:57.544Z,19.80
2017-07-27T19:04:23.939Z,19.70
2017-07-27T19:06:50.373Z,19.70
2017-07-27T19:09:16.760Z,19.80
2017-07-27T19:11:43.895Z,19.80
2017-07-27T19:14:10.297Z,19.70
2017-07-27T19:16:36.783Z,19.80
2017-07-27T19:19:03.210Z,19.80
2017-07-27T19:21:30.379Z,19.80
2017-07-27T19:23:56.840Z,19.80
2017-07-27T19:26:23.281Z,19.80
2017-07-27T19:28:49.686Z,19.70
2017-07-27T19:31:16.123Z,19.70
2017-07-27T19:33:42.524Z,19.70
2017-07-27T19:36:08.984Z,19.80
2017-07-27T19:38:35.405Z,19.70
2017-07-27T19:41:02.615Z,19.60
2017-07-27T19:43:29.021Z,19.60
2017-07-27T19:45:55.421Z,19.60
2017-07-27T19:48:21.940Z,19.60
2017-07-27T19:50:48.441Z,19.60
2017-07-27T19:53:14.873Z,19.50
2017-07-27T19:55:41.298Z,19.60
2017-07-27T19:58:07.699Z,19.50
2017-07-27T20:00:34.110Z,19.50
2017-07-27T20:03:01.261Z,19.50
2017-07-27T20:05:28.438Z,19.60
2017-07-27T20:07:54.846Z,19.60
2017-07-27T20:10:21.985Z,19.50
2017-07-27T20:12:48.386Z,19.50
2017-07-27T20:15:14.819Z,19.60
2017-07-27T20:17:41.227Z,19.50
2017-07-27T20:20:07.908Z,19.50
2017-07-27T20:22:34.363Z,19.40
2017-07-27T20:25:01.525Z,19.50
2017-07-27T20:27:28.717Z,19.40
2017-07-27T20:29:55.120Z,19.30
2017-07-27T20:32:21.640Z,19.20
2017-07-27T20:34:48.741Z,19.30
2017-07-27T20:37:15.174Z,19.30
2017-07-27T20:39:41.605Z,19.30
2017-07-27T20:42:08.008Z,19.40
2017-07-27T20:44:34.420Z,19.30
2017-07-27T20:47:01.574Z,19.20
2017-07-27T20:49:27.998Z,19.20
2017-07-27T20:51:55.143Z,19.30
2017-07-27T20:54:22.273Z,19.30
2017-07-27T20:56:48.728Z,19.30
2017-07-27T20:59:15.888Z,19.30
2017-07-27T21:01:42.310Z,19.30
2017-07-27T21:04:09.462Z,19.30
2017-07-27T21:06:36.596Z,19.50
2017-07-27T21:09:03.035Z,19.40
2017-07-27T21:11:29.455Z,19.50
2017-07-27T21:13:55.877Z,19.40
2017-07-27T21:16:22.307Z,19.20
2017-07-27T21:18:48.718Z,19.10
2017-07-27T21:21:15.506Z,19.00
2017-07-27T21:23:41.906Z,19.20
2017-07-27T21:26:08.322Z,19.30
2017-07-27T21:28:34.725Z,19.10
2017-07-27T21:31:01.120Z,19.00
2017-07-27T21:33:27.981Z,19.00
2017-07-27T21:35:55.149Z,19.20
2017-07-27T21:38:22.293Z,19.20
2017-07-27T21:40:49.446Z,19.10
2017-07-27T21:43:15.842Z,19.10
2017-07-27T21:45:42.297Z,19.00
2017-07-27T21:48:08.878Z,19.00
2017-07-27T21:50:35.302Z,18.90
2017-07-27T21:53:01.689Z,19.00
2017-07-27T21:55:28.096Z,19.00
2017-07-27T21:57:54.505Z,18.90
2017-07-27T22:00:20.908Z,19.00
2017-07-27T22:02:48.047Z,19.00
2017-07-27T22:05:14.472Z,19.00
2017-07-27T22:07:40.874Z,18.80
2017-07-27T22:10:07.309Z,18.70
2017-07-27T22:12:33.718Z,18.60
2017-07-27T22:15:00.139Z,18.60
2017-07-27T22:17:26.561Z,18.60
2017-07-27T22:19:53.683Z,18.80
2017-07-27T22:22:20.098Z,18.80
2017-07-27T22:24:46.488Z,18.90
2017-07-27T22:27:12.892Z,18.80
2017-07-27T22:29:39.306Z,18.80
2017-07-27T22:32:05.728Z,18.80
2017-07-27T22:34:32.151Z,18.80
2017-07-27T22:37:05.402Z,18.70
2017-07-27T22:39:31.856Z,18.70
2017-07-27T22:41:58.275Z,18.70
2017-07-27T22:44:24.704Z,18.60
2017-07-27T22:46:51.117Z,18.50
2017-07-27T22:49:18.300Z,18.70
2017-07-27T22:51:44.701Z,18.60
2017-07-27T22:54:11.889Z,18.60
2017-07-27T22:56:38.294Z,18.60
2017-07-27T22:59:05.436Z,18.50
2017-07-27T23:01:32.603Z,18.50
2017-07-27T23:03:59.021Z,18.50
2017-07-27T23:06:26.139Z,18.20
2017-07-27T23:08:52.564Z,18.20
2017-07-27T23:11:18.961Z,18.30
2017-07-27T23:13:45.361Z,18.40
2017-07-27T23:16:11.753Z,18.40
2017-07-27T23:18:38.172Z,18.50
2017-07-27T23:21:04.574Z,18.50
2017-07-27T23:23:31.741Z,18.20
2017-07-27T23:25:58.113Z,18.30
2017-07-27T23:28:24.544Z,18.20
2017-07-27T23:30:50.974Z,18.40
2017-07-27T23:33:17.402Z,18.40
2017-07-27T23:35:43.836Z,18.50
2017-07-27T23:38:10.258Z,18.50
2017-07-27T23:40:36.703Z,18.50
2017-07-27T23:43:03.108Z,18.50
2017-07-27T23:45:29.513Z,18.50
2017-07-27T23:47:56.674Z,18.20
2017-07-27T23:50:23.063Z,18.10
2017-07-27T23:52:49.467Z,18.10
2017-07-27T23:55:15.889Z,18.10
2017-07-27T23:57:42.265Z,18.10
